sensor_id;sensor_type;location;lat;lon;timestamp;pressure;altitude;pressure_sealevel;temperature;humidity
58245;BME280;44550;43.864;25.986;2023-04-26T00:00:34;100024.91;;;12.90;95.61
58245;BME280;44550;43.864;25.986;2023-04-26T00:04:35;100016.22;;;12.86;95.58
58245;BME280;44550;43.864;25.986;2023-04-26T00:08:36;100018.88;;;12.83;95.65
58245;BME280;44550;43.864;25.986;2023-04-26T00:12:37;100024.25;;;12.74;95.00
58245;BME280;44550;43.864;25.986;2023-04-26T00:16:48;100018.91;;;12.82;94.90
58245;BME280;44550;43.864;25.986;2023-04-26T00:20:51;100004.97;;;12.78;94.76
58245;BME280;44550;43.864;25.986;2023-04-26T00:25:00;100012.91;;;12.72;94.50
58245;BME280;44550;43.864;25.986;2023-04-26T00:29:11;100006.81;;;12.70;94.20
58245;BME280;44550;43.864;25.986;2023-04-26T00:33:18;100007.00;;;12.56;94.23
58245;BME280;44550;43.864;25.986;2023-04-26T00:37:21;100002.63;;;12.57;94.21
58245;BME280;44550;43.864;25.986;2023-04-26T00:41:23;100005.25;;;12.58;94.15
58245;BME280;44550;43.864;25.986;2023-04-26T00:45:25;100013.78;;;12.71;93.07
58245;BME280;44550;43.864;25.986;2023-04-26T00:49:32;100007.72;;;12.67;92.84
58245;BME280;44550;43.864;25.986;2023-04-26T00:53:42;100002.50;;;12.66;92.11
58245;BME280;44550;43.864;25.986;2023-04-26T00:57:44;99999.06;;;12.61;92.64
58245;BME280;44550;43.864;25.986;2023-04-26T01:01:52;100006.09;;;12.59;92.14
58245;BME280;44550;43.864;25.986;2023-04-26T01:05:55;100000.91;;;12.54;92.97
58245;BME280;44550;43.864;25.986;2023-04-26T01:10:01;99992.25;;;12.49;93.39
58245;BME280;44550;43.864;25.986;2023-04-26T01:14:10;99992.22;;;12.51;93.77
58245;BME280;44550;43.864;25.986;2023-04-26T01:18:22;99993.97;;;12.52;94.42
58245;BME280;44550;43.864;25.986;2023-04-26T01:22:35;100000.91;;;12.56;94.89
58245;BME280;44550;43.864;25.986;2023-04-26T01:26:39;99997.41;;;12.54;95.29
58245;BME280;44550;43.864;25.986;2023-04-26T01:30:52;100000.03;;;12.55;95.52
58245;BME280;44550;43.864;25.986;2023-04-26T01:34:53;99992.53;;;12.26;96.95
58245;BME280;44550;43.864;25.986;2023-04-26T01:39:00;100002.25;;;12.16;97.92
58245;BME280;44550;43.864;25.986;2023-04-26T01:43:04;99998.75;;;12.17;98.59
58245;BME280;44550;43.864;25.986;2023-04-26T01:47:04;99992.56;;;12.23;98.72
58245;BME280;44550;43.864;25.986;2023-04-26T01:51:08;99989.00;;;12.29;98.59
58245;BME280;44550;43.864;25.986;2023-04-26T01:55:11;99975.97;;;12.21;99.04
58245;BME280;44550;43.864;25.986;2023-04-26T01:59:15;99985.63;;;12.19;99.49
58245;BME280;44550;43.864;25.986;2023-04-26T02:03:15;99983.91;;;12.16;100.00
58245;BME280;44550;43.864;25.986;2023-04-26T02:07:27;99975.06;;;12.25;100.00
58245;BME280;44550;43.864;25.986;2023-04-26T02:11:34;99971.56;;;12.26;99.63
58245;BME280;44550;43.864;25.986;2023-04-26T02:15:38;99975.81;;;12.35;99.44
58245;BME280;44550;43.864;25.986;2023-04-26T02:19:39;99966.22;;;12.34;98.66
58245;BME280;44550;43.864;25.986;2023-04-26T02:23:40;99966.28;;;12.28;99.51
58245;BME280;44550;43.864;25.986;2023-04-26T02:27:47;99967.28;;;12.17;99.65
58245;BME280;44550;43.864;25.986;2023-04-26T02:31:50;99962.91;;;12.19;99.34
58245;BME280;44550;43.864;25.986;2023-04-26T02:35:50;99958.50;;;12.21;99.22
58245;BME280;44550;43.864;25.986;2023-04-26T02:39:55;99957.69;;;12.16;99.19
58245;BME280;44550;43.864;25.986;2023-04-26T02:43:59;99956.75;;;12.22;98.84
58245;BME280;44550;43.864;25.986;2023-04-26T02:48:00;99962.72;;;12.33;98.22
58245;BME280;44550;43.864;25.986;2023-04-26T02:52:05;99965.41;;;12.29;97.54
58245;BME280;44550;43.864;25.986;2023-04-26T02:56:06;99961.03;;;12.29;97.50
58245;BME280;44550;43.864;25.986;2023-04-26T03:00:11;99963.78;;;12.20;97.61
58245;BME280;44550;43.864;25.986;2023-04-26T03:04:20;99964.59;;;12.25;96.65
58245;BME280;44550;43.864;25.986;2023-04-26T03:08:21;99958.53;;;12.18;96.87
58245;BME280;44550;43.864;25.986;2023-04-26T03:12:22;99955.00;;;12.22;96.65
58245;BME280;44550;43.864;25.986;2023-04-26T03:16:27;99967.28;;;12.17;96.54
58245;BME280;44550;43.864;25.986;2023-04-26T03:20:29;99970.69;;;12.26;96.37
58245;BME280;44550;43.864;25.986;2023-04-26T03:24:29;99972.50;;;12.20;96.19
58245;BME280;44550;43.864;25.986;2023-04-26T03:28:40;99971.56;;;12.25;96.32
58245;BME280;44550;43.864;25.986;2023-04-26T03:32:43;99975.06;;;12.25;96.15
58245;BME280;44550;43.864;25.986;2023-04-26T03:36:46;99980.38;;;12.19;96.53
58245;BME280;44550;43.864;25.986;2023-04-26T03:40:52;99985.69;;;12.13;96.48
58245;BME280;44550;43.864;25.986;2023-04-26T03:44:55;99983.81;;;12.24;96.18
58245;BME280;44550;43.864;25.986;2023-04-26T03:48:59;99996.91;;;12.24;95.88
58245;BME280;44550;43.864;25.986;2023-04-26T03:53:01;99995.22;;;12.20;95.96
58245;BME280;44550;43.864;25.986;2023-04-26T03:57:05;100007.41;;;12.26;95.08
58245;BME280;44550;43.864;25.986;2023-04-26T04:01:05;100015.13;;;12.36;95.16
58245;BME280;44550;43.864;25.986;2023-04-26T04:05:15;100012.34;;;12.47;93.68
58245;BME280;44550;43.864;25.986;2023-04-26T04:09:15;100011.47;;;12.48;93.47
58245;BME280;44550;43.864;25.986;2023-04-26T04:13:25;100019.16;;;12.63;93.17
58245;BME280;44550;43.864;25.986;2023-04-26T04:17:44;100027.94;;;12.59;93.34
58245;BME280;44550;43.864;25.986;2023-04-26T04:21:50;100038.75;;;13.00;91.48
58245;BME280;44550;43.864;25.986;2023-04-26T04:25:55;100040.47;;;13.02;89.63
58245;BME280;44550;43.864;25.986;2023-04-26T04:29:56;100043.84;;;13.10;89.36
58245;BME280;44550;43.864;25.986;2023-04-26T04:34:00;100046.06;;;13.39;87.25
58245;BME280;44550;43.864;25.986;2023-04-26T04:38:09;100051.91;;;13.57;85.88
58245;BME280;44550;43.864;25.986;2023-04-26T04:42:18;100052.72;;;13.62;85.82
58245;BME280;44550;43.864;25.986;2023-04-26T04:46:25;100049.66;;;13.88;84.45
58245;BME280;44550;43.864;25.986;2023-04-26T04:50:31;100054.03;;;13.88;83.95
58245;BME280;44550;43.864;25.986;2023-04-26T04:54:37;100047.94;;;13.84;83.71
58245;BME280;44550;43.864;25.986;2023-04-26T04:58:38;100064.53;;;13.88;83.97
58245;BME280;44550;43.864;25.986;2023-04-26T05:02:46;100062.38;;;14.09;82.90
58245;BME280;44550;43.864;25.986;2023-04-26T05:06:53;100057.59;;;14.31;82.13
58245;BME280;44550;43.864;25.986;2023-04-26T05:10:56;100071.50;;;13.90;82.64
58245;BME280;44550;43.864;25.986;2023-04-26T05:14:57;100061.78;;;13.95;82.81
58245;BME280;44550;43.864;25.986;2023-04-26T05:19:01;100068.53;;;13.59;84.63
58245;BME280;44550;43.864;25.986;2023-04-26T05:23:08;100060.69;;;13.56;84.78
58245;BME280;44550;43.864;25.986;2023-04-26T05:27:11;100057.03;;;13.66;84.11
58245;BME280;44550;43.864;25.986;2023-04-26T05:31:14;100047.38;;;13.67;84.07
58245;BME280;44550;43.864;25.986;2023-04-26T05:35:19;100039.81;;;13.48;84.81
58245;BME280;44550;43.864;25.986;2023-04-26T05:39:26;100027.78;;;13.33;85.65
58245;BME280;44550;43.864;25.986;2023-04-26T05:43:34;100022.16;;;13.58;84.71
58245;BME280;44550;43.864;25.986;2023-04-26T05:47:39;100031.19;;;14.36;80.93
58245;BME280;44550;43.864;25.986;2023-04-26T05:51:39;100036.94;;;14.58;78.68
58245;BME280;44550;43.864;25.986;2023-04-26T05:56:06;100036.38;;;14.84;79.02
58245;BME280;44550;43.864;25.986;2023-04-26T06:00:18;100039.44;;;15.03;77.58
58245;BME280;44550;43.864;25.986;2023-04-26T06:04:27;100038.50;;;15.07;77.80
58245;BME280;44550;43.864;25.986;2023-04-26T06:08:29;100040.84;;;14.79;78.75
58245;BME280;44550;43.864;25.986;2023-04-26T06:12:30;100041.66;;;14.83;80.24
58245;BME280;44550;43.864;25.986;2023-04-26T06:16:39;100044.03;;;14.53;79.29
58245;BME280;44550;43.864;25.986;2023-04-26T06:20:41;100041.78;;;14.76;80.28
58245;BME280;44550;43.864;25.986;2023-04-26T06:24:45;100034.66;;;14.38;80.42
58245;BME280;44550;43.864;25.986;2023-04-26T06:28:48;100037.59;;;14.23;83.20
58245;BME280;44550;43.864;25.986;2023-04-26T06:32:55;100033.75;;;14.41;83.07
58245;BME280;44550;43.864;25.986;2023-04-26T06:36:59;100031.84;;;14.50;81.79
58245;BME280;44550;43.864;25.986;2023-04-26T06:41:01;100041.69;;;14.81;80.52
58245;BME280;44550;43.864;25.986;2023-04-26T06:45:03;100036.38;;;15.59;79.90
58245;BME280;44550;43.864;25.986;2023-04-26T06:49:09;100036.97;;;15.34;79.79
58245;BME280;44550;43.864;25.986;2023-04-26T06:53:15;100036.13;;;15.34;78.25
58245;BME280;44550;43.864;25.986;2023-04-26T06:57:20;100035.44;;;15.61;79.53
58245;BME280;44550;43.864;25.986;2023-04-26T07:01:22;100054.53;;;15.71;77.53
58245;BME280;44550;43.864;25.986;2023-04-26T07:05:27;100046.25;;;16.19;75.47
58245;BME280;44550;43.864;25.986;2023-04-26T07:09:32;100046.38;;;16.14;75.77
58245;BME280;44550;43.864;25.986;2023-04-26T07:13:33;100051.63;;;16.16;72.26
58245;BME280;44550;43.864;25.986;2023-04-26T07:17:37;100048.31;;;16.39;70.60
58245;BME280;44550;43.864;25.986;2023-04-26T07:21:42;100048.25;;;16.42;70.81
58245;BME280;44550;43.864;25.986;2023-04-26T07:25:43;100045.66;;;16.40;70.78
58245;BME280;44550;43.864;25.986;2023-04-26T07:29:44;100048.59;;;16.30;70.03
58245;BME280;44550;43.864;25.986;2023-04-26T07:33:47;100054.88;;;16.57;65.17
58245;BME280;44550;43.864;25.986;2023-04-26T07:37:56;100043.50;;;16.24;66.49
58245;BME280;44550;43.864;25.986;2023-04-26T07:41:59;100048.56;;;16.62;64.50
58245;BME280;44550;43.864;25.986;2023-04-26T07:46:00;100054.25;;;16.78;63.22
58245;BME280;44550;43.864;25.986;2023-04-26T07:50:07;100055.31;;;17.30;59.43
58245;BME280;44550;43.864;25.986;2023-04-26T07:54:14;100057.13;;;17.00;59.30
58245;BME280;44550;43.864;25.986;2023-04-26T07:58:28;100051.63;;;16.78;61.10
58245;BME280;44550;43.864;25.986;2023-04-26T08:02:29;100053.75;;;16.95;56.75
58245;BME280;44550;43.864;25.986;2023-04-26T08:06:41;100043.50;;;17.14;57.86
58245;BME280;44550;43.864;25.986;2023-04-26T08:10:47;100058.19;;;16.95;59.38
58245;BME280;44550;43.864;25.986;2023-04-26T08:14:48;100054.91;;;17.14;57.83
58245;BME280;44550;43.864;25.986;2023-04-26T08:18:52;100048.28;;;17.01;56.81
58245;BME280;44550;43.864;25.986;2023-04-26T08:22:59;100057.06;;;16.72;56.38
58245;BME280;44550;43.864;25.986;2023-04-26T08:27:10;100054.44;;;16.41;57.87
58245;BME280;44550;43.864;25.986;2023-04-26T08:31:18;100053.69;;;16.67;57.01
58245;BME280;44550;43.864;25.986;2023-04-26T08:35:19;100056.59;;;16.89;56.23
58245;BME280;44550;43.864;25.986;2023-04-26T08:39:24;100061.75;;;16.94;57.35
58245;BME280;44550;43.864;25.986;2023-04-26T08:43:46;100049.69;;;17.13;54.72
58245;BME280;44550;43.864;25.986;2023-04-26T08:47:57;100052.00;;;16.96;54.39
58245;BME280;44550;43.864;25.986;2023-04-26T08:52:01;100049.44;;;16.93;54.75
58245;BME280;44550;43.864;25.986;2023-04-26T08:56:04;100046.22;;;17.11;55.20
58245;BME280;44550;43.864;25.986;2023-04-26T09:00:09;100038.94;;;17.19;53.02
58245;BME280;44550;43.864;25.986;2023-04-26T09:04:12;100046.44;;;17.59;52.19
58245;BME280;44550;43.864;25.986;2023-04-26T09:08:18;100037.69;;;17.31;54.04
58245;BME280;44550;43.864;25.986;2023-04-26T09:12:37;100049.00;;;17.34;53.94
58245;BME280;44550;43.864;25.986;2023-04-26T09:17:01;100045.63;;;17.57;53.62
58245;BME280;44550;43.864;25.986;2023-04-26T09:21:09;100040.81;;;17.16;53.71
58245;BME280;44550;43.864;25.986;2023-04-26T09:34:13;100041.34;;;17.81;52.20
58245;BME280;44550;43.864;25.986;2023-04-26T09:38:14;100037.78;;;17.82;53.74
58245;BME280;44550;43.864;25.986;2023-04-26T09:42:17;100041.81;;;17.40;54.04
58245;BME280;44550;43.864;25.986;2023-04-26T09:46:21;100040.66;;;17.48;53.95
58245;BME280;44550;43.864;25.986;2023-04-26T09:50:31;100037.34;;;17.95;54.56
58245;BME280;44550;43.864;25.986;2023-04-26T09:54:39;100034.75;;;17.93;53.70
58245;BME280;44550;43.864;25.986;2023-04-26T09:58:59;100019.53;;;17.73;52.89
58245;BME280;44550;43.864;25.986;2023-04-26T10:03:02;100039.78;;;18.26;53.47
58245;BME280;44550;43.864;25.986;2023-04-26T10:07:08;100029.66;;;18.61;52.13
58245;BME280;44550;43.864;25.986;2023-04-26T10:11:21;100033.16;;;19.30;51.02
58245;BME280;44550;43.864;25.986;2023-04-26T10:15:28;100029.22;;;19.18;49.19
58245;BME280;44550;43.864;25.986;2023-04-26T10:19:30;100033.72;;;19.16;48.07
58245;BME280;44550;43.864;25.986;2023-04-26T10:23:35;100034.28;;;19.24;46.19
58245;BME280;44550;43.864;25.986;2023-04-26T10:27:49;100031.91;;;18.48;48.42
58245;BME280;44550;43.864;25.986;2023-04-26T10:32:05;100023.47;;;18.85;48.44
58245;BME280;44550;43.864;25.986;2023-04-26T10:36:12;100028.41;;;18.94;47.90
58245;BME280;44550;43.864;25.986;2023-04-26T10:40:25;100029.03;;;19.23;46.57
58245;BME280;44550;43.864;25.986;2023-04-26T10:44:37;100021.31;;;19.61;44.99
58245;BME280;44550;43.864;25.986;2023-04-26T10:48:41;100036.19;;;19.21;47.15
58245;BME280;44550;43.864;25.986;2023-04-26T10:57:02;100033.06;;;18.64;49.22
58245;BME280;44550;43.864;25.986;2023-04-26T11:01:06;100028.50;;;19.15;48.41
58245;BME280;44550;43.864;25.986;2023-04-26T11:09:47;100025.41;;;19.47;47.62
58245;BME280;44550;43.864;25.986;2023-04-26T11:13:53;100033.09;;;19.32;47.88
58245;BME280;44550;43.864;25.986;2023-04-26T11:18:06;100036.00;;;18.80;49.72
58245;BME280;44550;43.864;25.986;2023-04-26T11:22:06;100031.25;;;19.12;48.73
58245;BME280;44550;43.864;25.986;2023-04-26T11:26:08;100036.09;;;19.00;47.66
58245;BME280;44550;43.864;25.986;2023-04-26T11:30:12;100025.69;;;19.40;46.94
58245;BME280;44550;43.864;25.986;2023-04-26T11:34:30;100013.72;;;19.52;46.40
58245;BME280;44550;43.864;25.986;2023-04-26T11:38:31;100014.94;;;20.07;45.65
58245;BME280;44550;43.864;25.986;2023-04-26T11:42:33;100017.72;;;19.84;47.70
58245;BME280;44550;43.864;25.986;2023-04-26T11:46:42;100015.03;;;20.25;45.11
58245;BME280;44550;43.864;25.986;2023-04-26T11:50:49;100009.53;;;20.09;46.12
58245;BME280;44550;43.864;25.986;2023-04-26T11:55:04;100010.28;;;19.49;46.96
58245;BME280;44550;43.864;25.986;2023-04-26T11:59:24;100004.53;;;19.60;47.57
58245;BME280;44550;43.864;25.986;2023-04-26T12:03:33;100000.59;;;20.11;46.01
58245;BME280;44550;43.864;25.986;2023-04-26T12:07:34;100009.38;;;20.32;45.57
58245;BME280;44550;43.864;25.986;2023-04-26T12:11:47;100012.41;;;19.84;43.79
58245;BME280;44550;43.864;25.986;2023-04-26T12:15:56;100006.56;;;19.76;45.21
58245;BME280;44550;43.864;25.986;2023-04-26T12:20:10;100001.84;;;19.82;44.07
58245;BME280;44550;43.864;25.986;2023-04-26T12:24:34;100007.41;;;19.97;45.39
58245;BME280;44550;43.864;25.986;2023-04-26T12:28:58;100001.94;;;19.81;46.54
58245;BME280;44550;43.864;25.986;2023-04-26T12:33:01;99994.28;;;20.33;45.18
58245;BME280;44550;43.864;25.986;2023-04-26T12:37:18;99987.34;;;20.51;44.06
58245;BME280;44550;43.864;25.986;2023-04-26T12:41:30;99984.94;;;20.82;43.46
58245;BME280;44550;43.864;25.986;2023-04-26T12:45:51;99979.13;;;20.55;43.27
58245;BME280;44550;43.864;25.986;2023-04-26T12:49:59;99978.19;;;20.94;41.84
58245;BME280;44550;43.864;25.986;2023-04-26T12:54:11;99979.91;;;21.31;39.42
58245;BME280;44550;43.864;25.986;2023-04-26T12:58:28;99985.38;;;21.28;39.79
58245;BME280;44550;43.864;25.986;2023-04-26T13:02:48;99984.75;;;21.23;40.35
58245;BME280;44550;43.864;25.986;2023-04-26T13:06:54;99982.22;;;20.84;41.22
58245;BME280;44550;43.864;25.986;2023-04-26T13:10:57;99976.75;;;21.06;42.12
58245;BME280;44550;43.864;25.986;2023-04-26T13:15:02;99984.25;;;21.15;41.10
58245;BME280;44550;43.864;25.986;2023-04-26T13:19:05;99989.28;;;21.21;41.40
58245;BME280;44550;43.864;25.986;2023-04-26T13:23:07;99993.19;;;21.14;42.46
58245;BME280;44550;43.864;25.986;2023-04-26T13:27:12;99996.53;;;21.71;40.28
58245;BME280;44550;43.864;25.986;2023-04-26T13:31:15;99998.50;;;22.02;40.55
58245;BME280;44550;43.864;25.986;2023-04-26T13:35:16;100003.03;;;21.48;41.02
58245;BME280;44550;43.864;25.986;2023-04-26T13:39:19;99997.38;;;21.01;41.95
58245;BME280;44550;43.864;25.986;2023-04-26T13:43:33;99999.72;;;21.07;41.61
58245;BME280;44550;43.864;25.986;2023-04-26T13:47:34;100000.44;;;21.10;41.13
58245;BME280;44550;43.864;25.986;2023-04-26T13:51:37;99991.53;;;21.11;43.22
58245;BME280;44550;43.864;25.986;2023-04-26T13:55:42;99991.53;;;21.11;42.23
58245;BME280;44550;43.864;25.986;2023-04-26T13:59:45;99993.47;;;20.89;43.19
58245;BME280;44550;43.864;25.986;2023-04-26T14:03:45;99983.81;;;20.88;41.34
58245;BME280;44550;43.864;25.986;2023-04-26T14:07:53;100001.06;;;21.16;41.45
58245;BME280;44550;43.864;25.986;2023-04-26T14:12:10;99996.38;;;21.40;42.49
58245;BME280;44550;43.864;25.986;2023-04-26T14:16:20;99995.44;;;21.75;41.94
58245;BME280;44550;43.864;25.986;2023-04-26T14:20:25;100004.84;;;21.48;42.13
58245;BME280;44550;43.864;25.986;2023-04-26T14:24:35;99998.97;;;21.58;41.60
58245;BME280;44550;43.864;25.986;2023-04-26T14:28:42;100011.47;;;21.03;42.81
58245;BME280;44550;43.864;25.986;2023-04-26T14:32:48;99998.06;;;21.04;43.02
58245;BME280;44550;43.864;25.986;2023-04-26T14:37:03;100005.34;;;21.01;44.04
58245;BME280;44550;43.864;25.986;2023-04-26T14:41:06;100005.72;;;20.74;44.40
58245;BME280;44550;43.864;25.986;2023-04-26T14:45:10;100011.50;;;21.01;44.54
58245;BME280;44550;43.864;25.986;2023-04-26T14:49:40;100013.44;;;21.17;43.14
58245;BME280;44550;43.864;25.986;2023-04-26T14:53:40;100023.03;;;20.83;44.80
58245;BME280;44550;43.864;25.986;2023-04-26T14:57:46;100031.06;;;20.42;46.22
58245;BME280;44550;43.864;25.986;2023-04-26T15:02:02;100038.25;;;19.57;55.28
58245;BME280;44550;43.864;25.986;2023-04-26T15:06:06;100075.38;;;18.66;61.93
58245;BME280;44550;43.864;25.986;2023-04-26T15:10:10;100074.13;;;17.48;68.72
58245;BME280;44550;43.864;25.986;2023-04-26T15:14:10;100101.03;;;16.73;78.17
58245;BME280;44550;43.864;25.986;2023-04-26T15:18:13;100103.94;;;16.31;83.29
58245;BME280;44550;43.864;25.986;2023-04-26T15:22:18;100103.78;;;16.05;88.03
58245;BME280;44550;43.864;25.986;2023-04-26T15:26:19;100118.88;;;15.23;95.39
58245;BME280;44550;43.864;25.986;2023-04-26T15:30:19;100143.81;;;14.64;100.00
58245;BME280;44550;43.864;25.986;2023-04-26T15:34:37;100148.44;;;14.00;100.00
58245;BME280;44550;43.864;25.986;2023-04-26T15:38:45;100143.75;;;13.63;100.00
58245;BME280;44550;43.864;25.986;2023-04-26T15:42:48;100142.38;;;13.37;100.00
58245;BME280;44550;43.864;25.986;2023-04-26T15:46:49;100148.69;;;13.24;100.00
58245;BME280;44550;43.864;25.986;2023-04-26T15:51:04;100154.06;;;13.13;100.00
58245;BME280;44550;43.864;25.986;2023-04-26T15:55:22;100168.06;;;13.12;100.00
58245;BME280;44550;43.864;25.986;2023-04-26T15:59:24;100166.38;;;13.07;100.00
58245;BME280;44550;43.864;25.986;2023-04-26T16:03:27;100170.81;;;13.05;100.00
58245;BME280;44550;43.864;25.986;2023-04-26T16:07:28;100184.91;;;12.96;100.00
58245;BME280;44550;43.864;25.986;2023-04-26T16:11:31;100188.22;;;13.10;100.00
58245;BME280;44550;43.864;25.986;2023-04-26T16:48:24;100251.44;;;13.68;100.00
58245;BME280;44550;43.864;25.986;2023-04-26T16:52:45;100258.53;;;13.61;100.00
58245;BME280;44550;43.864;25.986;2023-04-26T16:57:03;100274.25;;;13.62;100.00
58245;BME280;44550;43.864;25.986;2023-04-26T17:01:15;100279.44;;;13.67;100.00
58245;BME280;44550;43.864;25.986;2023-04-26T17:05:35;100283.78;;;13.70;100.00
58245;BME280;44550;43.864;25.986;2023-04-26T17:09:56;100287.03;;;13.89;100.00
58245;BME280;44550;43.864;25.986;2023-04-26T17:14:17;100299.47;;;13.76;100.00
58245;BME280;44550;43.864;25.986;2023-04-26T17:18:24;100308.28;;;13.70;100.00
58245;BME280;44550;43.864;25.986;2023-04-26T17:22:31;100309.88;;;13.83;100.00
58245;BME280;44550;43.864;25.986;2023-04-26T17:26:48;100320.38;;;13.83;100.00
58245;BME280;44550;43.864;25.986;2023-04-26T17:35:49;100331.09;;;13.68;100.00
58245;BME280;44550;43.864;25.986;2023-04-26T17:40:04;100322.28;;;13.72;100.00
58245;BME280;44550;43.864;25.986;2023-04-26T17:44:28;100308.47;;;13.58;100.00
58245;BME280;44550;43.864;25.986;2023-04-26T17:48:28;100336.47;;;13.59;100.00
58245;BME280;44550;43.864;25.986;2023-04-26T17:52:28;100351.47;;;13.49;100.00
58245;BME280;44550;43.864;25.986;2023-04-26T17:56:30;100364.78;;;13.31;100.00
58245;BME280;44550;43.864;25.986;2023-04-26T18:00:31;100388.53;;;13.17;100.00
58245;BME280;44550;43.864;25.986;2023-04-26T18:04:35;100399.03;;;13.19;100.00
58245;BME280;44550;43.864;25.986;2023-04-26T18:08:35;100413.91;;;13.18;100.00
58245;BME280;44550;43.864;25.986;2023-04-26T18:12:38;100413.97;;;13.12;100.00
58245;BME280;44550;43.864;25.986;2023-04-26T18:16:38;100428.88;;;13.04;100.00
58245;BME280;44550;43.864;25.986;2023-04-26T18:20:38;100441.91;;;13.16;100.00
58245;BME280;44550;43.864;25.986;2023-04-26T18:24:38;100449.75;;;13.21;100.00
58245;BME280;44550;43.864;25.986;2023-04-26T18:28:40;100450.63;;;13.20;100.00
58245;BME280;44550;43.864;25.986;2023-04-26T18:32:41;100463.78;;;13.16;100.00
58245;BME280;44550;43.864;25.986;2023-04-26T18:36:41;100469.91;;;13.25;100.00
58245;BME280;44550;43.864;25.986;2023-04-26T18:40:41;100481.34;;;13.11;100.00
58245;BME280;44550;43.864;25.986;2023-04-26T18:44:44;100502.31;;;13.16;100.00
58245;BME280;44550;43.864;25.986;2023-04-26T18:48:44;100505.16;;;12.85;100.00
58245;BME280;44550;43.864;25.986;2023-04-26T18:52:45;100514.06;;;12.51;100.00
58245;BME280;44550;43.864;25.986;2023-04-26T18:56:45;100519.44;;;12.17;100.00
58245;BME280;44550;43.864;25.986;2023-04-26T19:00:48;100521.25;;;12.09;100.00
58245;BME280;44550;43.864;25.986;2023-04-26T19:04:49;100527.38;;;11.94;100.00
58245;BME280;44550;43.864;25.986;2023-04-26T19:08:50;100540.47;;;11.79;100.00
58245;BME280;44550;43.864;25.986;2023-04-26T19:12:50;100543.13;;;11.69;100.00
58245;BME280;44550;43.864;25.986;2023-04-26T19:16:52;100550.09;;;11.66;100.00
58245;BME280;44550;43.864;25.986;2023-04-26T19:20:56;100562.31;;;11.45;100.00
58245;BME280;44550;43.864;25.986;2023-04-26T19:24:59;100558.81;;;11.13;100.00
58245;BME280;44550;43.864;25.986;2023-04-26T19:29:09;100568.38;;;11.11;100.00
58245;BME280;44550;43.864;25.986;2023-04-26T19:33:12;100572.75;;;11.07;100.00
58245;BME280;44550;43.864;25.986;2023-04-26T19:37:12;100567.50;;;10.96;100.00
58245;BME280;44550;43.864;25.986;2023-04-26T19:41:12;100568.34;;;10.86;100.00
58245;BME280;44550;43.864;25.986;2023-04-26T19:45:16;100580.50;;;10.81;100.00
58245;BME280;44550;43.864;25.986;2023-04-26T19:49:20;100576.19;;;10.91;100.00
58245;BME280;44550;43.864;25.986;2023-04-26T19:53:22;100596.22;;;10.86;100.00
58245;BME280;44550;43.864;25.986;2023-04-26T19:57:25;100607.56;;;10.85;100.00
58245;BME280;44550;43.864;25.986;2023-04-26T20:01:26;100607.50;;;10.75;100.00
58245;BME280;44550;43.864;25.986;2023-04-26T20:05:28;100611.03;;;10.77;100.00
58245;BME280;44550;43.864;25.986;2023-04-26T20:09:32;100618.81;;;10.65;100.00
58245;BME280;44550;43.864;25.986;2023-04-26T20:13:34;100630.06;;;10.52;100.00
58245;BME280;44550;43.864;25.986;2023-04-26T20:17:41;100622.19;;;10.41;100.00
58245;BME280;44550;43.864;25.986;2023-04-26T20:21:44;100636.03;;;10.29;100.00
58245;BME280;44550;43.864;25.986;2023-04-26T20:25:45;100643.78;;;10.19;100.00
58245;BME280;44550;43.864;25.986;2023-04-26T20:29:46;100644.53;;;10.02;100.00
58245;BME280;44550;43.864;25.986;2023-04-26T20:33:46;100640.94;;;9.89;100.00
58245;BME280;44550;43.864;25.986;2023-04-26T20:37:49;100646.94;;;9.79;100.00
58245;BME280;44550;43.864;25.986;2023-04-26T20:41:54;100647.78;;;9.75;100.00
58245;BME280;44550;43.864;25.986;2023-04-26T20:46:00;100646.91;;;9.73;100.00
58245;BME280;44550;43.864;25.986;2023-04-26T20:50:01;100648.66;;;9.74;100.00
58245;BME280;44550;43.864;25.986;2023-04-26T20:54:04;100650.41;;;9.74;100.00
58245;BME280;44550;43.864;25.986;2023-04-26T20:58:05;100653.84;;;9.70;100.00
58245;BME280;44550;43.864;25.986;2023-04-26T21:02:10;100664.34;;;9.74;100.00
58245;BME280;44550;43.864;25.986;2023-04-26T21:06:16;100665.88;;;9.57;100.00
58245;BME280;44550;43.864;25.986;2023-04-26T21:11:03;100659.06;;;9.68;100.00
58245;BME280;44550;43.864;25.986;2023-04-26T21:15:13;100656.41;;;9.63;100.00
58245;BME280;44550;43.864;25.986;2023-04-26T21:19:23;100661.50;;;9.51;100.00
58245;BME280;44550;43.864;25.986;2023-04-26T21:23:29;100665.94;;;9.61;100.00
58245;BME280;44550;43.864;25.986;2023-04-26T21:27:32;100663.28;;;9.57;100.00
58245;BME280;44550;43.864;25.986;2023-04-26T21:31:39;100666.72;;;9.53;100.00
58245;BME280;44550;43.864;25.986;2023-04-26T21:35:41;100673.69;;;9.52;100.00
58245;BME280;44550;43.864;25.986;2023-04-26T21:39:43;100671.06;;;9.52;100.00
58245;BME280;44550;43.864;25.986;2023-04-26T21:43:46;100674.53;;;9.48;100.00
58245;BME280;44550;43.864;25.986;2023-04-26T21:47:49;100670.19;;;9.49;100.00
58245;BME280;44550;43.864;25.986;2023-04-26T21:51:50;100693.59;;;9.41;100.00
58245;BME280;44550;43.864;25.986;2023-04-26T21:55:54;100694.31;;;9.29;100.00
58245;BME280;44550;43.864;25.986;2023-04-26T22:00:04;100704.69;;;9.23;100.00
58245;BME280;44550;43.864;25.986;2023-04-26T22:04:10;100700.28;;;9.19;100.00